createdAt,value
2023-03-29T00:00:14.165Z,7.40
2023-03-29T00:02:50.250Z,7.60
2023-03-29T00:05:19.723Z,6.20
2023-03-29T00:08:04.575Z,6.80
2023-03-29T00:11:03.592Z,7.90
2023-03-29T00:13:36.577Z,7.00
2023-03-29T00:16:42.247Z,9.00
2023-03-29T00:19:15.839Z,7.40
2023-03-29T00:24:18.862Z,1.80
2023-03-29T00:26:49.742Z,10.40
2023-03-29T00:29:16.951Z,10.70
2023-03-29T00:31:46.156Z,9.50
2023-03-29T00:34:26.506Z,8.40
2023-03-29T00:36:58.096Z,10.00
2023-03-29T00:39:26.561Z,3.20
2023-03-29T00:41:57.057Z,8.30
2023-03-29T00:47:13.959Z,10.90
2023-03-29T00:49:43.195Z,8.90
2023-03-29T00:52:10.474Z,7.70
2023-03-29T00:54:38.059Z,8.80
2023-03-29T00:57:06.963Z,0.30
2023-03-29T00:59:35.759Z,10.20
2023-03-29T01:02:05.455Z,9.10
2023-03-29T01:04:37.065Z,8.10
2023-03-29T01:07:31.144Z,8.00
2023-03-29T01:15:21.881Z,2.50
2023-03-29T01:17:53.862Z,2.30
2023-03-29T01:20:34.558Z,9.20
2023-03-29T01:23:22.471Z,6.00
2023-03-29T01:26:38.256Z,2.40
2023-03-29T01:29:12.133Z,8.30
2023-03-29T01:31:49.676Z,7.10
2023-03-29T01:34:44.748Z,8.50
2023-03-29T01:37:25.005Z,2.30
2023-03-29T01:39:52.844Z,7.90
2023-03-29T01:42:32.896Z,8.50
2023-03-29T01:45:08.913Z,9.10
2023-03-29T01:47:48.279Z,10.90
2023-03-29T01:50:42.806Z,7.60
2023-03-29T01:53:22.437Z,1.00
2023-03-29T01:55:55.711Z,6.40
2023-03-29T01:58:33.897Z,6.60
2023-03-29T02:03:42.657Z,7.00
2023-03-29T02:06:11.557Z,8.00
2023-03-29T02:08:40.759Z,3.00
2023-03-29T02:11:08.733Z,8.40
2023-03-29T02:13:36.117Z,7.70
2023-03-29T02:16:08.618Z,7.80
2023-03-29T02:18:36.162Z,11.80
2023-03-29T02:21:18.251Z,17.10
2023-03-29T02:23:46.781Z,7.90
2023-03-29T02:26:14.511Z,2.60
2023-03-29T02:28:45.493Z,15.70
2023-03-29T02:31:26.237Z,18.20
2023-03-29T02:34:08.007Z,3.00
2023-03-29T02:36:47.619Z,2.70
2023-03-29T02:39:25.596Z,11.60
2023-03-29T02:41:53.246Z,10.10
2023-03-29T02:44:25.045Z,9.70
2023-03-29T02:46:55.371Z,7.80
2023-03-29T02:49:22.528Z,9.50
2023-03-29T02:51:56.180Z,7.60
2023-03-29T02:54:26.452Z,7.10
2023-03-29T02:56:57.217Z,6.70
2023-03-29T02:59:26.153Z,1.00
2023-03-29T03:01:53.685Z,4.90
2023-03-29T03:04:25.603Z,6.30
2023-03-29T03:06:56.077Z,3.60
2023-03-29T03:11:54.098Z,6.10
2023-03-29T03:14:22.987Z,6.00
2023-03-29T03:16:55.188Z,7.00
2023-03-29T03:19:23.606Z,1.80
2023-03-29T03:21:51.910Z,3.00
2023-03-29T03:24:19.023Z,2.00
2023-03-29T03:26:47.884Z,2.80
2023-03-29T03:29:15.819Z,6.00
2023-03-29T03:32:05.000Z,4.70
2023-03-29T03:34:53.668Z,2.40
2023-03-29T03:37:23.948Z,0.20
2023-03-29T03:39:52.024Z,0.20
2023-03-29T03:42:20.025Z,4.60
2023-03-29T03:44:50.175Z,4.20
2023-03-29T03:47:46.150Z,0.80
2023-03-29T03:50:24.342Z,0.70
2023-03-29T03:55:24.874Z,1.30
2023-03-29T03:58:03.239Z,0.90
2023-03-29T04:00:33.421Z,5.50
2023-03-29T04:03:24.552Z,1.00
2023-03-29T04:05:52.086Z,5.10
2023-03-29T04:08:19.881Z,6.10
2023-03-29T04:11:07.729Z,5.20
2023-03-29T04:13:38.036Z,0.70
2023-03-29T04:16:28.618Z,5.50
2023-03-29T04:19:00.052Z,2.10
2023-03-29T04:21:28.076Z,1.60
2023-03-29T04:23:55.848Z,5.90
2023-03-29T04:26:23.273Z,5.80
2023-03-29T04:29:11.358Z,1.50
2023-03-29T04:31:47.247Z,6.30
2023-03-29T04:34:43.047Z,0.90
2023-03-29T04:37:22.054Z,6.50
2023-03-29T04:39:50.706Z,1.10
2023-03-29T04:42:24.409Z,6.60
2023-03-29T04:44:53.341Z,1.10
2023-03-29T04:47:29.816Z,7.00
2023-03-29T04:50:06.675Z,6.70
2023-03-29T04:52:42.528Z,14.80
2023-03-29T04:55:11.889Z,9.00
2023-03-29T04:58:02.894Z,0.80
2023-03-29T05:00:39.282Z,5.00
2023-03-29T05:03:27.134Z,1.90
2023-03-29T05:06:08.817Z,8.30
2023-03-29T05:08:39.349Z,6.20
2023-03-29T05:11:19.956Z,0.60
2023-03-29T05:13:47.970Z,8.10
2023-03-29T05:16:17.513Z,0.90
2023-03-29T05:18:46.229Z,5.90
2023-03-29T05:21:14.140Z,8.00
2023-03-29T05:23:45.063Z,2.90
2023-03-29T05:26:15.390Z,8.60
2023-03-29T05:28:44.368Z,8.80
2023-03-29T05:31:14.137Z,7.20
2023-03-29T05:33:43.542Z,5.80
2023-03-29T05:36:13.783Z,6.70
2023-03-29T05:38:46.718Z,8.10
2023-03-29T05:41:15.875Z,6.70
2023-03-29T05:44:18.479Z,6.90
2023-03-29T05:46:47.992Z,8.60
2023-03-29T05:49:16.740Z,9.10
2023-03-29T05:52:10.945Z,7.70
2023-03-29T05:54:39.728Z,8.30
2023-03-29T05:57:10.067Z,8.90
2023-03-29T05:59:37.286Z,8.00
2023-03-29T06:02:06.968Z,8.10
2023-03-29T06:04:36.635Z,8.60
2023-03-29T06:07:26.929Z,1.10
2023-03-29T06:10:33.395Z,1.20
2023-03-29T06:13:18.687Z,7.10
2023-03-29T06:15:51.312Z,7.30
2023-03-29T06:18:20.343Z,7.60
2023-03-29T06:20:50.401Z,6.40
2023-03-29T06:25:48.069Z,6.80
2023-03-29T06:28:16.543Z,8.30
2023-03-29T06:30:43.812Z,9.40
2023-03-29T06:33:12.199Z,7.40
2023-03-29T06:35:58.143Z,7.10
2023-03-29T06:38:34.117Z,8.10
2023-03-29T06:41:16.202Z,7.70
2023-03-29T06:43:59.106Z,7.40
2023-03-29T06:46:32.547Z,9.20
2023-03-29T06:49:06.094Z,8.60
2023-03-29T06:51:40.227Z,6.90
2023-03-29T06:54:07.512Z,10.10
2023-03-29T06:56:42.052Z,7.10
2023-03-29T06:59:15.252Z,9.80
2023-03-29T07:02:02.912Z,9.50
2023-03-29T07:04:46.152Z,8.60
2023-03-29T07:07:22.319Z,7.60
2023-03-29T07:09:57.426Z,10.00
2023-03-29T07:12:50.599Z,7.30
2023-03-29T07:15:21.599Z,5.10
2023-03-29T07:18:14.636Z,6.60
2023-03-29T07:20:43.236Z,5.60
2023-03-29T07:23:18.084Z,6.90
2023-03-29T07:25:47.111Z,6.10
2023-03-29T07:28:14.441Z,5.50
2023-03-29T07:30:42.431Z,5.70
2023-03-29T07:33:16.108Z,5.90
2023-03-29T07:35:51.714Z,6.10
2023-03-29T07:38:38.922Z,3.60
2023-03-29T07:41:12.827Z,4.60
2023-03-29T07:43:52.161Z,5.00
2023-03-29T07:46:23.568Z,6.90
2023-03-29T07:48:51.611Z,5.80
2023-03-29T07:51:18.780Z,5.10
2023-03-29T07:53:49.800Z,6.30
2023-03-29T07:56:56.376Z,5.30
2023-03-29T07:59:39.803Z,4.30
2023-03-29T08:02:14.118Z,4.20
2023-03-29T08:04:46.155Z,3.80
2023-03-29T08:07:19.352Z,5.10
2023-03-29T08:10:06.889Z,6.20
2023-03-29T08:12:54.803Z,3.60
2023-03-29T08:15:28.939Z,4.70
2023-03-29T08:17:56.426Z,4.60
2023-03-29T08:20:33.786Z,4.20
2023-03-29T08:23:02.723Z,4.70
2023-03-29T08:25:49.749Z,5.60
2023-03-29T08:28:18.625Z,8.10
2023-03-29T08:30:49.914Z,6.60
2023-03-29T08:33:17.472Z,5.90
2023-03-29T08:35:45.235Z,3.70
2023-03-29T08:38:21.874Z,4.50
2023-03-29T08:40:49.896Z,6.10
2023-03-29T08:43:32.016Z,6.30
2023-03-29T08:46:37.287Z,5.30
2023-03-29T08:49:14.516Z,4.40
2023-03-29T08:51:47.406Z,4.80
2023-03-29T08:54:27.154Z,4.10
2023-03-29T08:57:35.201Z,4.60
2023-03-29T09:00:06.756Z,4.50
2023-03-29T09:02:37.599Z,7.40
2023-03-29T09:05:29.159Z,8.10
2023-03-29T09:08:17.365Z,7.30
2023-03-29T09:11:00.902Z,4.40
2023-03-29T09:13:58.919Z,5.80
2023-03-29T09:16:54.718Z,5.10
2023-03-29T09:19:30.914Z,4.70
2023-03-29T09:22:16.158Z,4.80
2023-03-29T09:24:55.020Z,7.10
2023-03-29T09:30:35.598Z,4.70
2023-03-29T09:33:13.830Z,4.60
2023-03-29T09:36:32.425Z,5.90
2023-03-29T09:39:04.024Z,5.10
2023-03-29T09:41:39.280Z,3.80
2023-03-29T09:46:56.557Z,3.80
2023-03-29T09:49:28.900Z,4.40
2023-03-29T09:51:57.433Z,4.80
2023-03-29T09:54:24.569Z,9.30
2023-03-29T09:57:15.960Z,3.20
2023-03-29T09:59:44.852Z,4.70
2023-03-29T10:02:13.546Z,3.80
2023-03-29T10:04:44.947Z,3.70
2023-03-29T10:07:19.138Z,3.90
2023-03-29T10:09:47.912Z,4.90
2023-03-29T10:18:56.555Z,5.50
2023-03-29T10:21:26.195Z,3.90
2023-03-29T10:23:58.539Z,4.30
2023-03-29T10:26:33.008Z,3.90
2023-03-29T10:29:03.178Z,3.20
2023-03-29T10:31:33.660Z,3.00
2023-03-29T10:34:03.161Z,3.90
2023-03-29T10:36:30.383Z,4.50
2023-03-29T10:38:59.488Z,3.10
2023-03-29T10:41:27.559Z,3.10
2023-03-29T10:43:55.041Z,4.80
2023-03-29T10:46:27.251Z,2.70
2023-03-29T10:49:05.087Z,5.00
2023-03-29T10:51:32.581Z,5.80
2023-03-29T10:53:59.701Z,3.20
2023-03-29T10:56:34.455Z,2.90
2023-03-29T10:59:14.765Z,5.50
2023-03-29T11:01:42.885Z,5.40
2023-03-29T11:04:20.912Z,4.40
2023-03-29T11:06:56.532Z,3.30
2023-03-29T11:09:42.265Z,4.20
2023-03-29T11:12:28.678Z,4.20
2023-03-29T11:15:20.886Z,3.80
2023-03-29T11:18:26.189Z,3.00
2023-03-29T11:21:10.339Z,5.60
2023-03-29T11:24:15.863Z,4.10
2023-03-29T11:27:09.568Z,4.70
2023-03-29T11:29:58.695Z,3.10
2023-03-29T11:32:32.158Z,4.10
2023-03-29T11:35:18.634Z,3.40
2023-03-29T11:38:09.956Z,5.90
2023-03-29T11:40:49.567Z,5.40
2023-03-29T11:43:23.003Z,4.10
2023-03-29T11:46:00.123Z,2.60
2023-03-29T11:48:34.662Z,5.40
2023-03-29T11:51:06.888Z,2.70
2023-03-29T11:53:39.457Z,3.10
2023-03-29T11:56:15.549Z,5.10
2023-03-29T11:58:46.761Z,9.80
2023-03-29T12:01:16.671Z,13.40
2023-03-29T12:03:50.970Z,9.40
2023-03-29T12:06:24.034Z,18.00
2023-03-29T12:09:16.208Z,23.70
2023-03-29T12:11:50.512Z,7.40
2023-03-29T12:14:21.889Z,17.10
2023-03-29T12:17:02.362Z,4.00
2023-03-29T12:19:31.999Z,7.50
2023-03-29T12:21:59.261Z,7.80
2023-03-29T12:24:29.268Z,5.60
2023-03-29T12:26:59.313Z,4.30
2023-03-29T12:29:26.786Z,3.30
2023-03-29T12:32:03.061Z,4.60
2023-03-29T12:34:38.529Z,4.20
2023-03-29T12:37:59.969Z,6.40
2023-03-29T12:40:49.041Z,5.50
2023-03-29T12:43:48.181Z,6.20
2023-03-29T12:46:28.184Z,4.20
2023-03-29T12:48:57.418Z,3.20
2023-03-29T12:51:29.876Z,3.30
2023-03-29T12:54:26.769Z,3.00
2023-03-29T12:57:18.909Z,3.40
2023-03-29T12:59:47.636Z,4.70
2023-03-29T13:02:14.862Z,2.90
2023-03-29T13:04:58.192Z,3.90
2023-03-29T13:07:28.710Z,4.30
2023-03-29T13:10:00.239Z,4.70
2023-03-29T13:12:51.116Z,7.10
2023-03-29T13:15:18.368Z,3.70
2023-03-29T13:18:01.317Z,4.90
2023-03-29T13:21:11.685Z,6.40
2023-03-29T13:24:09.124Z,5.10
2023-03-29T13:26:43.391Z,4.40
2023-03-29T13:29:35.985Z,4.80
2023-03-29T13:32:14.285Z,3.40
2023-03-29T13:34:54.186Z,4.60
2023-03-29T13:37:24.382Z,3.10
2023-03-29T13:39:53.512Z,5.00
2023-03-29T13:42:37.604Z,7.80
2023-03-29T13:45:16.803Z,4.10
2023-03-29T13:47:58.374Z,5.10
2023-03-29T13:50:38.474Z,7.90
2023-03-29T13:53:36.647Z,3.70
2023-03-29T13:56:05.748Z,6.50
2023-03-29T13:58:53.784Z,3.10
2023-03-29T14:01:43.726Z,4.90
2023-03-29T14:04:16.319Z,4.00
2023-03-29T14:06:45.235Z,8.30
2023-03-29T14:09:12.736Z,7.80
2023-03-29T14:11:44.436Z,6.20
2023-03-29T14:14:11.617Z,5.70
2023-03-29T14:16:40.728Z,4.40
2023-03-29T14:19:13.547Z,6.80
2023-03-29T14:21:41.857Z,5.20
2023-03-29T14:24:18.438Z,6.80
2023-03-29T14:26:46.941Z,8.60
2023-03-29T14:29:18.367Z,6.20
2023-03-29T14:31:46.986Z,6.20
2023-03-29T14:34:18.676Z,5.50
2023-03-29T14:36:48.976Z,7.10
2023-03-29T14:39:21.209Z,6.10
2023-03-29T14:41:59.416Z,5.60
2023-03-29T14:44:35.536Z,7.40
2023-03-29T14:47:03.450Z,6.40
2023-03-29T14:49:31.405Z,5.20
2023-03-29T14:52:00.304Z,7.10
2023-03-29T14:54:33.494Z,6.20
2023-03-29T14:57:06.711Z,4.70
2023-03-29T14:59:34.413Z,5.40
2023-03-29T15:02:04.995Z,7.00
2023-03-29T15:04:35.976Z,5.70
2023-03-29T15:07:06.174Z,9.00
2023-03-29T15:09:34.399Z,7.40
2023-03-29T15:12:02.272Z,14.50
2023-03-29T15:14:33.854Z,4.60
2023-03-29T15:17:21.789Z,5.20
2023-03-29T15:19:57.374Z,10.00
2023-03-29T15:22:32.342Z,8.90
2023-03-29T15:24:59.413Z,8.00
2023-03-29T15:27:26.581Z,8.60
2023-03-29T15:30:01.369Z,5.50
2023-03-29T15:32:34.385Z,6.10
2023-03-29T15:35:03.519Z,6.00
2023-03-29T15:37:31.456Z,8.00
2023-03-29T15:39:58.970Z,6.80
2023-03-29T15:42:26.673Z,6.70
2023-03-29T15:44:54.967Z,4.40
2023-03-29T15:47:22.266Z,8.20
2023-03-29T15:49:49.408Z,6.10
2023-03-29T15:52:18.326Z,4.90
2023-03-29T15:54:45.886Z,9.90
2023-03-29T15:57:14.257Z,8.10
2023-03-29T15:59:44.459Z,6.70
2023-03-29T16:02:16.340Z,8.20
2023-03-29T16:04:46.487Z,5.60
2023-03-29T16:07:15.373Z,5.70
2023-03-29T16:09:43.068Z,7.20
2023-03-29T16:12:10.573Z,5.70
2023-03-29T16:14:37.752Z,6.20
2023-03-29T16:17:05.983Z,7.20
2023-03-29T16:19:36.694Z,6.80
2023-03-29T16:22:07.440Z,6.10
2023-03-29T16:24:35.620Z,5.80
2023-03-29T16:27:04.407Z,7.20
2023-03-29T16:29:32.529Z,6.10
2023-03-29T16:31:59.783Z,10.10
2023-03-29T16:34:26.866Z,6.90
2023-03-29T16:36:54.224Z,6.90
2023-03-29T16:39:29.339Z,7.50
2023-03-29T16:41:56.813Z,7.30
2023-03-29T16:44:25.749Z,11.80
2023-03-29T16:46:58.411Z,11.30
2023-03-29T16:49:25.986Z,15.10
2023-03-29T16:52:01.487Z,15.30
2023-03-29T16:54:32.692Z,20.10
2023-03-29T16:56:59.730Z,19.50
2023-03-29T16:59:27.152Z,17.00
2023-03-29T17:01:54.915Z,13.20
2023-03-29T17:04:22.300Z,11.70
2023-03-29T17:06:49.725Z,12.10
2023-03-29T17:09:17.701Z,11.60
2023-03-29T17:11:44.965Z,12.20
2023-03-29T17:14:12.813Z,16.10
2023-03-29T17:16:40.665Z,14.60
2023-03-29T17:19:07.929Z,17.00
2023-03-29T17:21:35.103Z,18.80
2023-03-29T17:24:04.992Z,15.30
2023-03-29T17:26:32.845Z,19.80
2023-03-29T17:28:59.942Z,13.80
2023-03-29T17:31:28.065Z,15.60
2023-03-29T17:33:55.776Z,17.30
2023-03-29T17:36:33.806Z,19.80
2023-03-29T17:39:03.152Z,13.60
2023-03-29T17:41:31.171Z,14.40
2023-03-29T17:43:59.348Z,13.70
2023-03-29T17:46:26.394Z,13.40
2023-03-29T17:48:53.679Z,14.40
2023-03-29T17:51:21.192Z,15.40
2023-03-29T17:53:48.309Z,17.40
2023-03-29T17:56:16.306Z,25.20
2023-03-29T17:58:43.768Z,25.70
2023-03-29T18:01:19.587Z,26.80
2023-03-29T18:06:18.108Z,22.50
2023-03-29T18:08:45.411Z,21.40
2023-03-29T18:11:18.864Z,18.60
2023-03-29T18:13:47.926Z,18.60
2023-03-29T18:16:19.325Z,18.00
2023-03-29T18:18:46.964Z,20.00
2023-03-29T18:21:15.087Z,20.00
2023-03-29T18:23:45.137Z,18.70
2023-03-29T18:26:12.829Z,25.40
2023-03-29T18:28:42.382Z,29.40
2023-03-29T18:31:09.644Z,27.20
2023-03-29T18:33:37.760Z,24.00
2023-03-29T18:36:11.912Z,27.70
2023-03-29T18:38:40.641Z,40.10
2023-03-29T18:41:12.290Z,33.20
2023-03-29T18:43:40.049Z,37.30
2023-03-29T18:46:07.904Z,29.90
2023-03-29T18:48:42.051Z,42.30
2023-03-29T18:51:10.133Z,38.00
2023-03-29T18:53:37.845Z,37.50
2023-03-29T18:56:06.571Z,31.40
2023-03-29T18:58:33.788Z,27.30
2023-03-29T19:01:05.491Z,32.50
2023-03-29T19:03:34.416Z,28.30
2023-03-29T19:06:02.192Z,28.30
2023-03-29T19:08:34.763Z,24.00
2023-03-29T19:11:03.487Z,23.70
2023-03-29T19:13:30.581Z,21.10
2023-03-29T19:15:57.736Z,21.30
2023-03-29T19:18:25.280Z,17.50
2023-03-29T19:20:54.136Z,8.00
2023-03-29T19:23:23.212Z,15.90
2023-03-29T19:25:56.687Z,17.80
2023-03-29T19:28:27.381Z,17.90
2023-03-29T19:30:55.972Z,6.70
2023-03-29T19:33:23.621Z,15.40
2023-03-29T19:35:51.757Z,18.30
2023-03-29T19:38:19.773Z,17.00
2023-03-29T19:40:50.979Z,17.20
2023-03-29T19:43:20.748Z,18.00
2023-03-29T19:45:49.923Z,19.00
2023-03-29T19:50:47.952Z,15.00
2023-03-29T19:53:15.269Z,15.00
2023-03-29T19:55:46.302Z,15.20
2023-03-29T19:58:13.676Z,14.20
2023-03-29T20:00:42.017Z,6.70
2023-03-29T20:03:10.588Z,4.20
2023-03-29T20:05:38.942Z,18.10
2023-03-29T20:08:06.979Z,25.10
2023-03-29T20:10:34.710Z,22.50
2023-03-29T20:13:03.197Z,8.90
2023-03-29T20:15:30.434Z,33.40
2023-03-29T20:17:59.835Z,62.10
2023-03-29T20:20:49.455Z,60.90
2023-03-29T20:23:17.247Z,73.00
2023-03-29T20:25:44.438Z,61.50
2023-03-29T20:28:12.822Z,87.60
2023-03-29T20:30:41.820Z,142.50
2023-03-29T20:33:09.149Z,61.30
2023-03-29T20:35:39.537Z,35.40
2023-03-29T20:38:16.217Z,17.40
2023-03-29T20:40:45.074Z,38.10
2023-03-29T20:43:13.732Z,34.20
2023-03-29T20:45:52.798Z,34.30
2023-03-29T20:48:24.352Z,17.80
2023-03-29T20:50:52.327Z,17.20
2023-03-29T20:53:20.815Z,30.00
2023-03-29T20:55:52.345Z,15.80
2023-03-29T20:58:43.783Z,30.90
2023-03-29T21:01:14.209Z,17.60
2023-03-29T21:03:43.414Z,17.30
2023-03-29T21:06:14.103Z,32.80
2023-03-29T21:08:43.873Z,20.30
2023-03-29T21:11:16.358Z,10.50
2023-03-29T21:13:48.741Z,56.50
2023-03-29T21:16:18.321Z,23.00
2023-03-29T21:18:56.673Z,72.10
2023-03-29T21:21:29.756Z,24.70
2023-03-29T21:23:56.878Z,45.40
2023-03-29T21:26:24.081Z,23.90
2023-03-29T21:28:51.117Z,53.10
2023-03-29T21:31:18.427Z,61.70
2023-03-29T21:33:45.945Z,91.00
2023-03-29T21:36:14.267Z,73.90
2023-03-29T21:38:41.459Z,74.40
2023-03-29T21:41:12.130Z,71.30
2023-03-29T21:46:07.116Z,49.00
2023-03-29T21:48:37.648Z,25.30
2023-03-29T21:51:06.456Z,17.20
2023-03-29T21:53:41.941Z,16.20
2023-03-29T21:56:09.479Z,51.60
2023-03-29T21:58:36.829Z,37.50
2023-03-29T22:01:07.454Z,37.50
2023-03-29T22:03:37.448Z,42.30
2023-03-29T22:06:10.539Z,15.30
2023-03-29T22:08:40.591Z,37.70
2023-03-29T22:11:09.917Z,20.70
2023-03-29T22:13:40.754Z,47.70
2023-03-29T22:16:13.803Z,28.00
2023-03-29T22:18:44.602Z,41.60
2023-03-29T22:21:23.432Z,47.00
2023-03-29T22:23:52.159Z,42.50
2023-03-29T22:26:21.574Z,23.10
2023-03-29T22:28:52.544Z,12.90
2023-03-29T22:33:48.251Z,21.20
2023-03-29T22:36:21.111Z,19.60
2023-03-29T22:38:48.769Z,51.70
2023-03-29T22:41:19.397Z,48.10
2023-03-29T22:43:47.530Z,14.10
2023-03-29T22:46:19.114Z,42.00
2023-03-29T22:48:46.381Z,14.70
2023-03-29T22:51:13.432Z,17.40
2023-03-29T22:53:42.059Z,29.10
2023-03-29T22:56:09.696Z,16.90
2023-03-29T22:58:38.068Z,5.40
2023-03-29T23:01:05.890Z,7.20
2023-03-29T23:03:33.464Z,69.00
2023-03-29T23:06:04.152Z,39.10
2023-03-29T23:11:04.427Z,132.50
2023-03-29T23:13:35.267Z,32.10
2023-03-29T23:16:03.855Z,19.20
2023-03-29T23:18:37.716Z,6.90
2023-03-29T23:21:09.402Z,37.10
2023-03-29T23:23:36.892Z,5.20
2023-03-29T23:26:05.016Z,8.10
2023-03-29T23:28:34.531Z,30.50
2023-03-29T23:31:12.353Z,30.10
2023-03-29T23:33:41.360Z,8.60
2023-03-29T23:36:13.395Z,37.80
2023-03-29T23:38:51.429Z,10.60
2023-03-29T23:41:20.245Z,8.00
2023-03-29T23:43:53.640Z,13.00
2023-03-29T23:46:21.456Z,26.20
2023-03-29T23:48:49.209Z,13.40
2023-03-29T23:51:23.351Z,27.60
2023-03-29T23:53:50.650Z,10.60
2023-03-29T23:56:22.155Z,9.50
2023-03-29T23:58:51.814Z,6.30
